EmailTwitter


Observations de surface / Québec / CYMX

Régions: Québec | Canada | États-Unis | Europe | France | UK | Ailleurs
Station
Affichage
Infos & localisation pour CYMX | Aide pour décoder les METARs

Observations prises le 2018-04-23 à 08H00 UTC à MONTREAL MIRABEL, QB (CYMX)

Etat du ciel: quelques nuages.

Température: -1.0 Celsius

Point de rosée: -7.0 Celsius

Humidité relative: 64%

Vents: Ouest à 4 km/h ou 2 noeuds.

Pression au niveau moyen de la mer: 103.00 kilopascals.

Calage altimétrique: 102.95 kilopascals ou 30.40 pouces de mercure.

Visibilité horizontale: 25.00 milles terrestres ou 40.00 kilomètres.

Observation METAR:

CYMX 230800Z 27002KT 25SM FEW250 M01/M07 A3040 RMK CI1 SLP300=